createdAt,value
2023-05-18T00:02:26.659Z,9.55
2023-05-18T00:04:55.044Z,9.51
2023-05-18T00:07:23.166Z,9.47
2023-05-18T00:09:51.101Z,9.43
2023-05-18T00:12:19.123Z,9.39
2023-05-18T00:14:47.162Z,9.35
2023-05-18T00:17:16.088Z,9.31
2023-05-18T00:19:46.695Z,9.27
2023-05-18T00:22:20.620Z,9.22
2023-05-18T00:24:48.696Z,9.18
2023-05-18T00:27:16.498Z,9.14
2023-05-18T00:29:44.379Z,9.10
2023-05-18T00:32:12.283Z,9.06
2023-05-18T00:34:40.180Z,9.02
2023-05-18T00:37:08.194Z,8.98
2023-05-18T00:39:36.084Z,8.95
2023-05-18T00:42:04.480Z,8.90
2023-05-18T00:44:32.407Z,9.11
2023-05-18T00:47:00.761Z,10.34
2023-05-18T00:49:28.784Z,11.31
2023-05-18T00:51:57.179Z,10.93
2023-05-18T00:54:25.142Z,10.40
2023-05-18T00:56:53.338Z,10.05
2023-05-18T00:59:22.154Z,9.83
2023-05-18T01:01:50.518Z,9.66
2023-05-18T01:04:21.742Z,9.53
2023-05-18T01:06:50.064Z,9.41
2023-05-18T01:09:17.914Z,9.31
2023-05-18T01:11:56.933Z,9.23
2023-05-18T01:15:01.995Z,9.13
2023-05-18T01:18:25.787Z,9.58
2023-05-18T01:20:59.841Z,11.35
2023-05-18T01:23:48.614Z,11.96
2023-05-18T01:26:24.908Z,11.22
2023-05-18T01:28:54.462Z,10.61
2023-05-18T01:31:23.445Z,10.23
2023-05-18T01:33:51.653Z,9.96
2023-05-18T01:36:19.692Z,9.74
2023-05-18T01:38:47.615Z,9.56
2023-05-18T01:41:25.743Z,9.39
2023-05-18T01:44:18.431Z,9.60
2023-05-18T01:46:55.180Z,11.12
2023-05-18T01:49:43.634Z,11.86
2023-05-18T01:52:17.187Z,11.13
2023-05-18T01:54:51.522Z,10.52
2023-05-18T01:57:21.864Z,10.09
2023-05-18T01:59:51.198Z,9.80
2023-05-18T02:02:19.230Z,9.55
2023-05-18T02:04:47.200Z,9.67
2023-05-18T02:07:15.063Z,10.85
2023-05-18T02:09:44.364Z,11.94
2023-05-18T02:12:12.359Z,11.89
2023-05-18T02:14:40.499Z,11.11
2023-05-18T02:17:08.477Z,10.51
2023-05-18T02:19:39.461Z,10.08
2023-05-18T02:22:08.237Z,9.76
2023-05-18T02:24:36.247Z,9.49
2023-05-18T02:27:05.961Z,9.68
2023-05-18T02:29:33.884Z,10.83
2023-05-18T02:32:01.739Z,11.80
2023-05-18T02:34:32.971Z,11.54
2023-05-18T02:37:03.962Z,10.74
2023-05-18T02:39:31.836Z,10.14
2023-05-18T02:42:00.317Z,9.72
2023-05-18T02:44:28.182Z,9.73
2023-05-18T02:46:55.995Z,10.92
2023-05-18T02:49:24.181Z,11.88
2023-05-18T02:51:52.015Z,11.36
2023-05-18T02:54:20.066Z,10.57
2023-05-18T02:56:49.046Z,10.00
2023-05-18T02:59:16.946Z,9.59
2023-05-18T03:01:45.206Z,9.63
2023-05-18T03:04:14.087Z,10.87
2023-05-18T03:06:41.900Z,11.63
2023-05-18T03:09:09.770Z,10.96
2023-05-18T03:11:37.711Z,10.21
2023-05-18T03:14:05.500Z,9.68
2023-05-18T03:16:33.785Z,9.69
2023-05-18T03:19:02.801Z,10.81
2023-05-18T03:21:33.872Z,11.70
2023-05-18T03:24:03.515Z,11.31
2023-05-18T03:26:32.501Z,10.47
2023-05-18T03:29:01.669Z,9.86
2023-05-18T03:31:30.383Z,9.43
2023-05-18T03:33:58.360Z,9.52
2023-05-18T03:36:28.261Z,10.64
2023-05-18T03:38:56.208Z,11.67
2023-05-18T03:41:24.025Z,11.52
2023-05-18T03:43:51.948Z,10.66
2023-05-18T03:46:20.021Z,10.02
2023-05-18T03:48:48.018Z,9.59
2023-05-18T03:51:16.180Z,9.68
2023-05-18T03:53:44.031Z,11.01
2023-05-18T03:56:13.460Z,11.82
2023-05-18T03:58:42.476Z,11.14
2023-05-18T04:01:10.709Z,10.45
2023-05-18T04:03:40.802Z,10.02
2023-05-18T04:06:10.328Z,9.77
2023-05-18T04:08:40.993Z,9.60
2023-05-18T04:11:09.458Z,9.88
2023-05-18T04:13:38.711Z,11.36
2023-05-18T04:16:07.361Z,12.16
2023-05-18T04:18:36.438Z,11.51
2023-05-18T04:21:06.445Z,10.88
2023-05-18T04:23:38.992Z,10.44
2023-05-18T04:26:07.020Z,10.14
2023-05-18T04:28:34.970Z,9.93
2023-05-18T04:31:02.980Z,10.12
2023-05-18T04:33:30.755Z,11.53
2023-05-18T04:35:59.752Z,12.40
2023-05-18T04:38:27.585Z,11.82
2023-05-18T04:40:57.045Z,11.23
2023-05-18T04:43:24.907Z,10.90
2023-05-18T04:45:53.081Z,10.73
2023-05-18T04:48:20.958Z,10.68
2023-05-18T04:50:48.803Z,10.68
2023-05-18T04:53:18.172Z,10.70
2023-05-18T04:55:46.925Z,10.72
2023-05-18T04:58:15.094Z,10.78
2023-05-18T05:00:43.205Z,10.82
2023-05-18T05:03:11.323Z,10.82
2023-05-18T05:05:39.325Z,10.81
2023-05-18T05:08:07.373Z,10.81
2023-05-18T05:10:35.428Z,10.83
2023-05-18T05:13:04.225Z,10.89
2023-05-18T05:15:32.391Z,10.96
2023-05-18T05:18:00.366Z,11.05
2023-05-18T05:20:28.251Z,11.16
2023-05-18T05:22:56.216Z,11.28
2023-05-18T05:25:24.052Z,11.43
2023-05-18T05:27:51.838Z,11.61
2023-05-18T05:30:19.633Z,11.78
2023-05-18T05:32:47.523Z,11.95
2023-05-18T05:35:15.472Z,12.10
2023-05-18T05:37:43.364Z,12.25
2023-05-18T05:40:11.603Z,12.40
2023-05-18T05:42:39.781Z,12.55
2023-05-18T05:45:08.717Z,12.70
2023-05-18T05:47:36.640Z,12.87
2023-05-18T05:50:05.630Z,13.05
2023-05-18T05:52:33.556Z,13.25
2023-05-18T05:55:01.413Z,13.44
2023-05-18T05:57:29.311Z,13.62
2023-05-18T05:59:57.234Z,13.77
2023-05-18T06:02:25.449Z,13.86
2023-05-18T06:04:53.529Z,13.96
2023-05-18T06:07:21.393Z,14.06
2023-05-18T06:09:50.268Z,14.15
2023-05-18T06:12:18.109Z,14.24
2023-05-18T06:14:45.921Z,14.35
2023-05-18T06:17:13.739Z,14.51
2023-05-18T06:19:41.545Z,14.80
2023-05-18T06:22:09.367Z,15.23
2023-05-18T06:24:37.168Z,15.70
2023-05-18T06:27:05.427Z,16.11
2023-05-18T06:29:33.361Z,16.41
2023-05-18T06:32:01.837Z,16.69
2023-05-18T06:34:29.806Z,17.06
2023-05-18T06:36:58.637Z,17.38
2023-05-18T06:39:26.465Z,17.59
2023-05-18T06:41:54.234Z,17.73
2023-05-18T06:44:22.127Z,17.87
2023-05-18T06:46:50.102Z,18.02
2023-05-18T06:49:17.973Z,18.14
2023-05-18T06:51:45.963Z,18.26
2023-05-18T06:54:14.245Z,18.36
2023-05-18T06:56:42.723Z,18.44
2023-05-18T06:59:10.561Z,18.49
2023-05-18T07:01:38.608Z,18.50
2023-05-18T07:04:06.779Z,18.48
2023-05-18T07:06:34.716Z,18.53
2023-05-18T07:09:03.953Z,18.57
2023-05-18T07:11:31.866Z,18.62
2023-05-18T07:13:59.726Z,18.68
2023-05-18T07:16:28.278Z,18.75
2023-05-18T07:18:58.751Z,18.79
2023-05-18T07:21:26.956Z,18.77
2023-05-18T07:23:55.001Z,18.75
2023-05-18T07:26:23.219Z,18.72
2023-05-18T07:28:51.718Z,18.66
2023-05-18T07:31:21.768Z,18.49
2023-05-18T07:33:49.702Z,18.45
2023-05-18T07:36:17.540Z,18.51
2023-05-18T07:38:45.558Z,18.61
2023-05-18T07:41:13.445Z,18.73
2023-05-18T07:43:41.276Z,18.86
2023-05-18T07:46:09.268Z,19.01
2023-05-18T07:48:39.715Z,19.12
2023-05-18T07:51:08.671Z,19.07
2023-05-18T07:53:37.416Z,19.15
2023-05-18T07:56:07.597Z,19.17
2023-05-18T07:58:36.731Z,19.28
2023-05-18T08:01:04.660Z,19.32
2023-05-18T08:03:33.008Z,19.42
2023-05-18T08:06:01.037Z,19.49
2023-05-18T08:08:28.961Z,19.53
2023-05-18T08:10:57.307Z,19.53
2023-05-18T08:13:25.343Z,19.63
2023-05-18T08:16:09.819Z,19.73
2023-05-18T08:18:40.011Z,19.80
2023-05-18T08:21:09.762Z,19.88
2023-05-18T08:23:38.677Z,20.02
2023-05-18T08:26:08.265Z,20.09
2023-05-18T08:28:36.217Z,20.13
2023-05-18T08:31:04.138Z,20.15
2023-05-18T08:33:32.605Z,20.16
2023-05-18T08:36:00.671Z,20.23
2023-05-18T08:38:28.481Z,20.27
2023-05-18T08:41:07.199Z,20.36
2023-05-18T08:43:38.587Z,20.53
2023-05-18T08:46:26.926Z,20.63
2023-05-18T08:48:55.089Z,20.67
2023-05-18T08:51:23.054Z,20.66
2023-05-18T08:53:54.037Z,20.71
2023-05-18T08:56:24.150Z,20.52
2023-05-18T08:58:56.509Z,20.43
2023-05-18T09:01:30.256Z,20.51
2023-05-18T09:04:01.483Z,20.56
2023-05-18T09:06:29.750Z,20.53
2023-05-18T09:08:58.453Z,20.48
2023-05-18T09:11:28.121Z,20.46
2023-05-18T09:13:55.947Z,20.45
2023-05-18T09:16:24.703Z,20.43
2023-05-18T09:18:53.637Z,20.43
2023-05-18T09:21:21.574Z,20.09
2023-05-18T09:23:50.903Z,20.23
2023-05-18T09:26:21.118Z,20.27
2023-05-18T09:28:53.631Z,20.32
2023-05-18T09:31:24.408Z,20.36
2023-05-18T09:33:52.743Z,20.49
2023-05-18T09:36:26.163Z,20.64
2023-05-18T09:38:54.143Z,20.74
2023-05-18T09:41:26.570Z,20.83
2023-05-18T09:43:54.388Z,20.92
2023-05-18T09:46:22.396Z,21.09
2023-05-18T09:48:53.252Z,21.25
2023-05-18T09:51:25.102Z,21.35
2023-05-18T09:53:57.869Z,21.43
2023-05-18T09:56:27.280Z,21.50
2023-05-18T09:58:55.435Z,21.53
2023-05-18T10:01:23.434Z,21.53
2023-05-18T10:03:51.506Z,21.56
2023-05-18T10:06:21.127Z,21.64
2023-05-18T10:08:49.110Z,21.64
2023-05-18T10:11:20.081Z,21.68
2023-05-18T10:13:47.929Z,21.73
2023-05-18T10:16:16.662Z,21.76
2023-05-18T10:18:45.514Z,21.68
2023-05-18T10:21:14.522Z,21.77
2023-05-18T10:23:42.952Z,21.85
2023-05-18T10:26:11.380Z,21.86
2023-05-18T10:28:42.838Z,21.90
2023-05-18T10:31:11.069Z,21.94
2023-05-18T10:33:39.028Z,21.96
2023-05-18T10:36:07.802Z,22.00
2023-05-18T10:38:39.737Z,22.02
2023-05-18T10:41:08.100Z,22.06
2023-05-18T10:43:36.645Z,22.10
2023-05-18T10:46:08.279Z,22.03
2023-05-18T10:48:40.480Z,21.98
2023-05-18T10:51:08.611Z,21.95
2023-05-18T10:53:36.970Z,21.92
2023-05-18T10:56:05.218Z,21.82
2023-05-18T10:58:33.427Z,21.79
2023-05-18T11:01:03.405Z,21.75
2023-05-18T11:03:33.224Z,21.76
2023-05-18T11:06:06.823Z,21.77
2023-05-18T11:08:43.506Z,21.72
2023-05-18T11:11:11.401Z,21.55
2023-05-18T11:13:52.552Z,21.44
2023-05-18T11:16:20.942Z,21.37
2023-05-18T11:18:52.432Z,21.15
2023-05-18T11:21:41.480Z,20.78
2023-05-18T11:24:24.756Z,20.81
2023-05-18T11:26:53.635Z,20.83
2023-05-18T11:29:36.230Z,20.93
2023-05-18T11:32:05.176Z,21.02
2023-05-18T11:34:54.227Z,21.10
2023-05-18T11:37:39.970Z,21.11
2023-05-18T11:40:13.644Z,21.16
2023-05-18T11:42:41.577Z,21.27
2023-05-18T11:45:12.192Z,21.29
2023-05-18T11:47:41.071Z,21.32
2023-05-18T11:50:12.200Z,21.35
2023-05-18T11:52:56.877Z,21.26
2023-05-18T11:55:38.074Z,21.21
2023-05-18T11:58:07.738Z,21.10
2023-05-18T12:00:36.893Z,21.07
2023-05-18T12:03:06.286Z,20.87
2023-05-18T12:05:35.949Z,20.60
2023-05-18T12:08:04.272Z,20.50
2023-05-18T12:10:32.392Z,20.43
2023-05-18T12:13:01.131Z,20.38
2023-05-18T12:15:29.072Z,20.36
2023-05-18T12:17:58.975Z,20.35
2023-05-18T12:20:28.325Z,20.33
2023-05-18T12:22:56.990Z,20.29
2023-05-18T12:25:26.988Z,20.18
2023-05-18T12:27:56.688Z,20.05
2023-05-18T12:30:34.861Z,19.91
2023-05-18T12:33:03.902Z,19.90
2023-05-18T12:35:33.214Z,20.00
2023-05-18T12:38:01.923Z,20.08
2023-05-18T12:40:46.619Z,20.04
2023-05-18T12:43:14.839Z,20.02
2023-05-18T12:45:44.704Z,19.96
2023-05-18T12:48:15.056Z,19.80
2023-05-18T12:50:48.318Z,19.76
2023-05-18T12:53:17.472Z,19.77
2023-05-18T12:55:45.592Z,19.79
2023-05-18T12:58:18.137Z,19.85
2023-05-18T13:00:47.904Z,19.88
2023-05-18T13:03:22.041Z,19.94
2023-05-18T13:06:07.404Z,19.99
2023-05-18T13:08:36.578Z,20.04
2023-05-18T13:11:14.478Z,19.99
2023-05-18T13:14:04.388Z,19.88
2023-05-18T13:16:35.209Z,19.76
2023-05-18T13:19:06.993Z,19.63
2023-05-18T13:21:35.794Z,19.52
2023-05-18T13:24:07.073Z,19.42
2023-05-18T13:26:35.536Z,19.31
2023-05-18T13:29:03.428Z,19.24
2023-05-18T13:31:31.306Z,19.19
2023-05-18T13:33:59.206Z,19.15
2023-05-18T13:36:29.703Z,19.12
2023-05-18T13:38:57.734Z,19.10
2023-05-18T13:41:25.817Z,19.05
2023-05-18T13:43:53.612Z,19.00
2023-05-18T13:46:21.772Z,18.94
2023-05-18T13:48:49.749Z,18.87
2023-05-18T13:51:17.631Z,18.82
2023-05-18T13:53:45.688Z,18.77
2023-05-18T13:56:13.660Z,18.72
2023-05-18T13:58:42.015Z,18.67
2023-05-18T14:01:12.745Z,18.60
2023-05-18T14:03:41.619Z,18.55
2023-05-18T14:06:09.620Z,18.54
2023-05-18T14:08:37.452Z,18.51
2023-05-18T14:11:05.577Z,18.51
2023-05-18T14:13:33.492Z,18.51
2023-05-18T14:16:01.657Z,18.47
2023-05-18T14:18:29.696Z,18.43
2023-05-18T14:21:02.201Z,18.37
2023-05-18T14:23:30.119Z,18.29
2023-05-18T14:25:57.901Z,18.23
2023-05-18T14:28:25.746Z,18.16
2023-05-18T14:30:53.577Z,18.09
2023-05-18T14:33:21.612Z,18.04
2023-05-18T14:35:49.484Z,18.00
2023-05-18T14:38:17.379Z,17.94
2023-05-18T14:40:45.191Z,17.93
2023-05-18T14:43:13.464Z,17.93
2023-05-18T14:45:41.329Z,17.98
2023-05-18T14:48:10.824Z,17.99
2023-05-18T14:50:39.346Z,17.97
2023-05-18T14:53:07.490Z,17.95
2023-05-18T14:55:35.354Z,17.90
2023-05-18T14:58:05.489Z,17.86
2023-05-18T15:00:33.884Z,17.80
2023-05-18T15:03:01.982Z,17.76
2023-05-18T15:05:29.910Z,17.73
2023-05-18T15:07:57.929Z,17.70
2023-05-18T15:10:25.958Z,17.70
2023-05-18T15:12:53.858Z,17.72
2023-05-18T15:15:21.728Z,17.73
2023-05-18T15:17:49.646Z,17.75
2023-05-18T15:20:17.729Z,17.79
2023-05-18T15:22:45.464Z,17.86
2023-05-18T15:25:13.253Z,17.85
2023-05-18T15:27:41.085Z,17.82
2023-05-18T15:30:11.808Z,17.81
2023-05-18T15:32:40.922Z,17.76
2023-05-18T15:35:09.244Z,17.76
2023-05-18T15:37:37.330Z,17.75
2023-05-18T15:40:05.929Z,17.76
2023-05-18T15:42:34.069Z,17.81
2023-05-18T15:45:03.133Z,17.85
2023-05-18T15:47:31.062Z,17.88
2023-05-18T15:49:58.886Z,17.91
2023-05-18T15:52:36.599Z,17.92
2023-05-18T15:55:06.008Z,17.89
2023-05-18T15:57:37.737Z,17.86
2023-05-18T16:00:06.791Z,17.80
2023-05-18T16:02:34.705Z,17.82
2023-05-18T16:05:03.000Z,17.81
2023-05-18T16:07:31.066Z,17.81
2023-05-18T16:09:58.929Z,17.83
2023-05-18T16:12:26.806Z,17.85
2023-05-18T16:14:54.771Z,17.87
2023-05-18T16:17:23.102Z,17.88
2023-05-18T16:19:52.069Z,17.83
2023-05-18T16:22:19.939Z,17.87
2023-05-18T16:24:51.070Z,17.86
2023-05-18T16:27:19.653Z,17.82
2023-05-18T16:29:48.905Z,17.82
2023-05-18T16:32:16.644Z,17.82
2023-05-18T16:34:44.608Z,17.79
2023-05-18T16:37:12.713Z,17.76
2023-05-18T16:39:40.851Z,17.72
2023-05-18T16:42:09.531Z,17.66
2023-05-18T16:44:37.414Z,17.62
2023-05-18T16:47:05.414Z,17.55
2023-05-18T16:49:33.975Z,17.50
2023-05-18T16:52:02.168Z,17.45
2023-05-18T16:54:30.091Z,17.40
2023-05-18T16:56:57.960Z,17.35
2023-05-18T16:59:25.808Z,17.32
2023-05-18T17:01:53.913Z,17.28
2023-05-18T17:04:21.966Z,17.26
2023-05-18T17:06:49.895Z,17.23
2023-05-18T17:09:20.590Z,17.19
2023-05-18T17:11:49.200Z,17.16
2023-05-18T17:14:18.640Z,17.12
2023-05-18T17:16:47.297Z,17.09
2023-05-18T17:19:15.247Z,17.08
2023-05-18T17:21:43.403Z,17.07
2023-05-18T17:24:11.435Z,17.05
2023-05-18T17:26:39.328Z,17.04
2023-05-18T17:29:07.333Z,17.02
2023-05-18T17:31:35.354Z,17.00
2023-05-18T17:34:03.225Z,16.99
2023-05-18T17:36:31.076Z,16.98
2023-05-18T17:38:59.113Z,16.96
2023-05-18T17:41:26.957Z,16.94
2023-05-18T17:43:54.966Z,16.90
2023-05-18T17:46:22.936Z,16.87
2023-05-18T17:48:51.032Z,16.86
2023-05-18T17:51:19.165Z,16.85
2023-05-18T17:53:47.122Z,16.82
2023-05-18T17:56:15.029Z,16.78
2023-05-18T17:58:43.025Z,16.77
2023-05-18T18:01:12.225Z,16.74
2023-05-18T18:03:40.255Z,16.71
2023-05-18T18:06:08.264Z,16.68
2023-05-18T18:08:36.823Z,16.65
2023-05-18T18:11:06.328Z,16.60
2023-05-18T18:13:35.568Z,16.56
2023-05-18T18:16:03.563Z,16.53
2023-05-18T18:18:31.943Z,16.48
2023-05-18T18:20:59.841Z,16.44
2023-05-18T18:23:27.994Z,16.40
2023-05-18T18:25:55.862Z,16.35
2023-05-18T18:28:23.617Z,16.30
2023-05-18T18:30:51.783Z,16.25
2023-05-18T18:33:20.898Z,16.20
2023-05-18T18:35:48.930Z,16.15
2023-05-18T18:38:16.820Z,16.09
2023-05-18T18:40:44.670Z,16.03
2023-05-18T18:43:12.503Z,15.97
2023-05-18T18:45:40.746Z,15.91
2023-05-18T18:48:09.183Z,15.85
2023-05-18T18:50:37.182Z,15.78
2023-05-18T18:53:05.164Z,15.71
2023-05-18T18:55:33.304Z,15.64
2023-05-18T18:58:01.528Z,15.56
2023-05-18T19:00:29.543Z,15.47
2023-05-18T19:02:57.436Z,15.39
2023-05-18T19:05:25.343Z,15.31
2023-05-18T19:07:55.829Z,15.23
2023-05-18T19:10:24.154Z,15.14
2023-05-18T19:12:53.692Z,15.05
2023-05-18T19:15:22.000Z,14.97
2023-05-18T19:17:53.779Z,14.89
2023-05-18T19:20:22.901Z,14.81
2023-05-18T19:22:53.229Z,14.73
2023-05-18T19:25:24.306Z,14.65
2023-05-18T19:27:53.752Z,14.57
2023-05-18T19:30:22.787Z,14.50
2023-05-18T19:32:53.062Z,14.43
2023-05-18T19:35:22.177Z,14.36
2023-05-18T19:37:51.643Z,14.29
2023-05-18T19:40:21.622Z,14.22
2023-05-18T19:42:50.349Z,14.13
2023-05-18T19:45:18.313Z,14.07
2023-05-18T19:47:46.167Z,14.01
2023-05-18T19:50:14.123Z,13.94
2023-05-18T19:52:41.937Z,13.88
2023-05-18T19:55:09.864Z,13.82
2023-05-18T19:57:38.002Z,13.75
2023-05-18T20:00:07.405Z,13.67
2023-05-18T20:02:35.438Z,13.60
2023-05-18T20:05:06.106Z,13.54
2023-05-18T20:07:34.231Z,13.47
2023-05-18T20:10:02.053Z,13.41
2023-05-18T20:12:30.038Z,13.36
2023-05-18T20:14:57.917Z,13.31
2023-05-18T20:17:26.043Z,13.26
2023-05-18T20:19:54.038Z,13.21
2023-05-18T20:22:21.960Z,13.15
2023-05-18T20:24:49.804Z,13.11
2023-05-18T20:27:17.736Z,13.06
2023-05-18T20:29:46.164Z,13.01
2023-05-18T20:32:14.156Z,12.97
2023-05-18T20:34:44.410Z,12.92
2023-05-18T20:37:13.875Z,12.86
2023-05-18T20:39:50.283Z,12.82
2023-05-18T20:42:22.299Z,12.77
2023-05-18T20:44:51.819Z,12.72
2023-05-18T20:47:20.806Z,12.68
2023-05-18T20:49:50.055Z,12.63
2023-05-18T20:52:18.110Z,12.59
2023-05-18T20:54:46.215Z,12.55
2023-05-18T20:57:14.187Z,12.85
2023-05-18T20:59:42.161Z,14.31
2023-05-18T21:02:33.596Z,15.26
2023-05-18T21:05:02.759Z,14.66
2023-05-18T21:07:32.179Z,14.13
2023-05-18T21:10:01.939Z,13.79
2023-05-18T21:12:29.906Z,13.55
2023-05-18T21:14:57.815Z,13.38
2023-05-18T21:17:26.075Z,13.23
2023-05-18T21:19:53.884Z,13.10
2023-05-18T21:22:21.870Z,12.99
2023-05-18T21:24:49.880Z,13.23
2023-05-18T21:27:17.971Z,14.66
2023-05-18T21:29:46.012Z,15.59
2023-05-18T21:32:14.207Z,15.06
2023-05-18T21:34:43.795Z,14.44
2023-05-18T21:37:11.919Z,14.00
2023-05-18T21:39:42.042Z,13.68
2023-05-18T21:42:10.502Z,13.46
2023-05-18T21:44:38.452Z,13.27
2023-05-18T21:47:08.114Z,13.11
2023-05-18T21:49:37.073Z,12.97
2023-05-18T21:52:05.637Z,12.85
2023-05-18T21:54:35.470Z,12.74
2023-05-18T21:57:03.493Z,12.63
2023-05-18T21:59:31.590Z,12.54
2023-05-18T22:01:59.840Z,12.45
2023-05-18T22:04:27.833Z,12.37
2023-05-18T22:06:55.899Z,12.63
2023-05-18T22:09:24.062Z,14.02
2023-05-18T22:11:52.168Z,14.87
2023-05-18T22:14:20.190Z,14.33
2023-05-18T22:16:48.323Z,13.74
2023-05-18T22:19:16.332Z,13.36
2023-05-18T22:21:44.648Z,13.09
2023-05-18T22:24:12.721Z,12.89
2023-05-18T22:26:43.141Z,12.74
2023-05-18T22:29:11.543Z,12.60
2023-05-18T22:31:39.682Z,12.49
2023-05-18T22:34:07.650Z,12.94
2023-05-18T22:36:35.598Z,14.41
2023-05-18T22:39:03.882Z,14.96
2023-05-18T22:41:31.810Z,14.30
2023-05-18T22:43:59.784Z,13.74
2023-05-18T22:46:27.810Z,13.37
2023-05-18T22:48:55.692Z,13.11
2023-05-18T22:51:23.535Z,12.91
2023-05-18T22:53:51.749Z,12.75
2023-05-18T22:56:21.045Z,12.62
2023-05-18T22:58:49.048Z,12.50
2023-05-18T23:01:17.148Z,12.39
2023-05-18T23:03:45.045Z,12.29
2023-05-18T23:06:14.109Z,12.53
2023-05-18T23:08:43.436Z,13.99
2023-05-18T23:11:11.622Z,14.91
2023-05-18T23:13:39.598Z,14.33
2023-05-18T23:16:10.533Z,13.72
2023-05-18T23:18:38.889Z,13.31
2023-05-18T23:21:09.233Z,13.04
2023-05-18T23:23:37.127Z,12.82
2023-05-18T23:26:05.024Z,12.65
2023-05-18T23:28:32.868Z,12.51
2023-05-18T23:31:01.425Z,12.39
2023-05-18T23:33:29.785Z,12.26
2023-05-18T23:36:02.611Z,12.16
2023-05-18T23:38:34.986Z,12.73
2023-05-18T23:41:04.940Z,14.28
2023-05-18T23:43:33.937Z,15.13
2023-05-18T23:46:02.452Z,14.48
2023-05-18T23:48:31.119Z,13.79
2023-05-18T23:51:02.138Z,13.36
2023-05-18T23:53:30.499Z,13.05
2023-05-18T23:55:59.592Z,12.82
2023-05-18T23:58:30.651Z,12.62
